»·PEaware :: N751LU KCOE-KBLI

N751LU :: KCOE-KBLI

FLIGHT INFORMATION

Flight Status: Arrived
Operator: Privately registered:
United States
More flights under this callsign
Pilot: Ewen S. (18928)
Aircraft: CANADAIR CL-600 CHALLENGER
(CL60)
More flights by this aircraft type
Origin: KCOE Coeur d'Alene
United States
Destination: KBLI Bellingham Intl
United States
More flights between these airports :: More routes between these airports
Route: GEG J52 SHUKA HUH
File this flight plan on PilotEdge
Remarks:
Altitude:
(Current/Filed)
28,000ft
Speed:
(Current/Filed)
430kts
Departed: 17-Jul-23 01:41 PM
Arrived: 17-Jul-23 02:34 PM
Distance/Time
Traveled:
236nm/0:53
Distance/Time
To Go:
Arrived

Flight Plot

Page will automatically refresh every two minutes.

Flight plan parsing failed; only flown route is shown


Map Options




Map Legend


Flown Route
Filed Route
Departure Airport
Arrival Airport
Navaid (VOR, NDB)
Fix

Horizontal Profiles

Position Reports

Time Latitude Longitude Heading Altitude Ground
Speed
17-Jul-23 13:15 47.768073 -116.821463 359 2308ft 0kts
17-Jul-23 13:16 47.768073 -116.821463 359 2308ft 0kts
17-Jul-23 13:17 47.768073 -116.821463 359 2308ft 0kts
17-Jul-23 13:18 47.768073 -116.821463 359 2308ft 0kts
17-Jul-23 13:19 47.768073 -116.821463 359 2308ft 0kts
17-Jul-23 13:20 47.768073 -116.821463 359 2308ft 0kts
17-Jul-23 13:21 47.768073 -116.821463 359 2308ft 0kts
17-Jul-23 13:22 47.768073 -116.821463 359 2308ft 0kts
17-Jul-23 13:23 47.768073 -116.821463 359 2308ft 0kts
17-Jul-23 13:24 47.768073 -116.821463 359 2308ft 0kts
17-Jul-23 13:25 47.768073 -116.821463 359 2308ft 0kts
17-Jul-23 13:26 47.768073 -116.821463 359 2308ft 0kts
17-Jul-23 13:26 47.768073 -116.821463 359 2308ft 0kts
17-Jul-23 13:27 47.768073 -116.821463 359 2308ft 0kts
17-Jul-23 13:29 47.768073 -116.821463 359 2308ft 0kts
17-Jul-23 13:30 47.768073 -116.821463 359 2307ft 0kts
17-Jul-23 13:30 47.768073 -116.821463 359 2307ft 0kts
17-Jul-23 13:31 47.768073 -116.821463 359 2307ft 0kts
17-Jul-23 13:32 47.768073 -116.821463 359 2307ft 0kts
17-Jul-23 13:33 47.768073 -116.821463 359 2308ft 0kts
17-Jul-23 13:35 47.768073 -116.821463 359 2308ft 0kts
17-Jul-23 13:35 47.768073 -116.821463 359 2308ft 0kts
17-Jul-23 13:36 47.766806 -116.820482 164 2308ft 20kts
17-Jul-23 13:37 47.770006 -116.816542 31 2311ft 21kts
17-Jul-23 13:38 47.776050 -116.810949 31 2317ft 28kts
17-Jul-23 13:39 47.778380 -116.810594 248 2317ft 35kts
17-Jul-23 13:40 47.763931 -116.871336 245 4215ft 202kts
17-Jul-23 13:41 47.740804 -116.958417 247 8366ft 255kts
17-Jul-23 13:42 47.714609 -117.058402 249 13241ft 267kts
17-Jul-23 13:43 47.687164 -117.163359 250 16953ft 283kts
17-Jul-23 13:44 47.658603 -117.272400 250 17785ft 294kts
17-Jul-23 13:45 47.630149 -117.380496 249 21905ft 282kts
17-Jul-23 13:46 47.600922 -117.491195 249 24839ft 295kts
17-Jul-23 13:47 47.571391 -117.606334 257 27502ft 305kts
17-Jul-23 13:48 47.597479 -117.734767 286 28571ft 365kts
17-Jul-23 13:49 47.641870 -117.880481 287 28573ft 405kts
17-Jul-23 13:50 47.687713 -118.031356 287 28536ft 399kts
17-Jul-23 13:51 47.732877 -118.181245 287 28570ft 398kts
17-Jul-23 13:52 47.777773 -118.331306 287 28537ft 398kts
17-Jul-23 13:53 47.822523 -118.481844 287 28519ft 396kts
17-Jul-23 13:54 47.866834 -118.631886 287 28518ft 395kts
17-Jul-23 13:55 47.910910 -118.782093 287 28467ft 393kts
17-Jul-23 13:56 47.954420 -118.931278 287 28455ft 393kts
17-Jul-23 13:57 47.997752 -119.080776 288 28409ft 391kts
17-Jul-23 13:58 48.040763 -119.230080 287 28405ft 391kts
17-Jul-23 13:59 48.083676 -119.379995 287 28406ft 393kts
17-Jul-23 14:00 48.126556 -119.530717 288 28399ft 392kts
17-Jul-23 14:01 48.169106 -119.681226 286 28364ft 394kts
17-Jul-23 14:02 48.211661 -119.832672 287 28360ft 393kts
17-Jul-23 14:03 48.253983 -119.984297 287 28392ft 394kts
17-Jul-23 14:04 48.296030 -120.135895 287 28371ft 395kts
17-Jul-23 14:05 48.337936 -120.287994 287 28406ft 395kts
17-Jul-23 14:06 48.379124 -120.438160 287 27776ft 368kts
17-Jul-23 14:07 48.416188 -120.574071 287 26303ft 332kts
17-Jul-23 14:08 48.449589 -120.697513 286 24904ft 306kts
17-Jul-23 14:09 48.480945 -120.814196 286 23441ft 300kts
17-Jul-23 14:10 48.511789 -120.929425 287 21867ft 293kts
17-Jul-23 14:11 48.541682 -121.041593 288 20606ft 284kts
17-Jul-23 14:12 48.571443 -121.153862 288 19282ft 281kts
17-Jul-23 14:13 48.600018 -121.262076 289 17680ft 276kts
17-Jul-23 14:14 48.628022 -121.368616 290 16028ft 271kts
17-Jul-23 14:15 48.655671 -121.474271 290 14442ft 267kts
17-Jul-23 14:16 48.683157 -121.579869 290 14334ft 271kts
17-Jul-23 14:17 48.710439 -121.685053 289 14317ft 262kts
17-Jul-23 14:18 48.736643 -121.786520 289 14306ft 259kts
17-Jul-23 14:19 48.762681 -121.887909 289 14297ft 260kts
17-Jul-23 14:20 48.788906 -121.990377 289 14291ft 261kts
17-Jul-23 14:21 48.815958 -122.096548 289 12649ft 271kts
17-Jul-23 14:22 48.843726 -122.201395 290 11137ft 260kts
17-Jul-23 14:23 48.870813 -122.301595 290 9707ft 258kts
17-Jul-23 14:24 48.897694 -122.401493 290 8180ft 254kts
17-Jul-23 14:25 48.905986 -122.500518 239 6410ft 244kts
17-Jul-23 14:26 48.852156 -122.537946 181 3241ft 220kts
17-Jul-23 14:27 48.794649 -122.537442 182 188ft 168kts
17-Jul-23 14:28 48.751273 -122.526885 135 962ft 169kts
17-Jul-23 14:29 48.770605 -122.478128 6 1020ft 187kts
17-Jul-23 14:30 48.821255 -122.473886 359 1265ft 174kts
17-Jul-23 14:31 48.831238 -122.520167 251 867ft 124kts
17-Jul-23 14:32 48.802725 -122.537427 184 204ft 119kts
17-Jul-23 14:33 48.785992 -122.537542 181 169ft 31kts
17-Jul-23 14:34 48.785950 -122.535817 0 171ft 21kts
17-Jul-23 14:35 48.790486 -122.534792 56 160ft 0kts

Navigation Log

Ident Type
Flight plan parsing failed, navigation log unavailable